BBC Orinoco — V2DM2 — position and weather

sailwx.info

Track history (hours):
 
Tides and Currents Weather Stations Pressure Air Temp Water Temp Dewpoint Dewpoint Depression Visibility Wind Speed Wind Dir Waves Ship Positions

BBC Orinoco

Last reported at 2016-May-27 04:22 UTC. Time now 2016-May-27 20:06 UTC.
Position N 54°09' W 005°16'.

Length 143 m; draft 6.7 m.

Type: Ship. MMSI: 305255000.

Date/timePositionNaut miles runAvg speedWind from/ knotsBaromVisibWave heightAir tempDewpointWater temp
2016-May-27 04:22N 54°09' W 005°16'1012.3
2016-May-27 03:33N 54°19' W 005°16'1212.0
2016-May-27 02:34N 54°31' W 005°17'1313.0
2016-May-27 01:34N 54°44' W 005°18'1413.5
2016-May-27 00:34N 54°57' W 005°19'5412.3
2016-May-26 20:11N 55°50' W 004°57'812.6
2016-May-26 19:33N 55°57' W 004°53'1110.7
2016-May-26 18:33N 55°56' W 004°34'8 8.0
2016-May-26 17:33N 55°52' W 004°21'0 0.1
2016-May-26 16:32N 55°52' W 004°21'0 0.0
2016-May-26 15:31N 55°52' W 004°21'0 0.0
2016-May-26 14:31N 55°52' W 004°21'0 0.0
2016-May-26 13:33N 55°52' W 004°21'0 0.0
2016-May-26 12:33N 55°52' W 004°21'0 0.0
2016-May-26 11:24N 55°52' W 004°21'0 0.0
2016-May-26 10:32N 55°52' W 004°21'0 0.0
2016-May-26 09:32N 55°52' W 004°21'0 0.0
2016-May-26 08:31N 55°52' W 004°21'0 0.0
2016-May-26 07:28N 55°52' W 004°21'0 0.0
2016-May-26 06:34N 55°52' W 004°21'0 0.0
2016-May-26 05:33N 55°52' W 004°21'0 0.0
2016-May-26 04:33N 55°52' W 004°21'0 0.0
2016-May-26 03:32N 55°52' W 004°21'0 0.0
2016-May-26 02:32N 55°52' W 004°21'0 0.0
2016-May-26 01:31N 55°52' W 004°21'0 0.0
2016-May-26 00:31N 55°52' W 004°21'0 0.0
2016-May-25 23:33N 55°52' W 004°21'0 0.0
2016-May-25 22:32N 55°52' W 004°21'0 0.0
2016-May-25 21:33N 55°52' W 004°21'0 0.0
2016-May-25 20:32N 55°52' W 004°21'0 0.0
2016-May-25 19:29N 55°52' W 004°21'0 0.0
2016-May-25 18:31N 55°52' W 004°21'0 0.0
2016-May-25 17:25N 55°52' W 004°21'0 0.0
2016-May-25 16:33N 55°52' W 004°21'0 0.0
2016-May-25 15:30N 55°52' W 004°21'0 0.0
2016-May-25 12:33N 55°52' W 004°21'0 0.0
2016-May-25 11:31N 55°52' W 004°21'0 0.0
2016-May-25 10:16N 55°52' W 004°21'0 0.0
2016-May-25 09:34N 55°52' W 004°21'0 0.0
2016-May-25 08:33N 55°52' W 004°21'0 0.0
2016-May-25 07:33N 55°52' W 004°21'0 0.0
2016-May-25 06:32N 55°52' W 004°21'0 0.0
2016-May-25 05:32N 55°52' W 004°21'0 0.0
2016-May-25 04:31N 55°52' W 004°21'0 0.0
2016-May-25 03:31N 55°52' W 004°21'0 0.0
2016-May-25 02:33N 55°52' W 004°21'6 6.0
2016-May-25 01:33N 55°56' W 004°30'9 8.7
2016-May-25 00:33N 55°57' W 004°45'9 9.0
2016-May-24 23:33N 55°51' W 004°57'1711.3
2016-May-24 22:06N 55°35' W 005°06'0 0.0
2016-May-24 19:30N 55°35' W 005°06'0 0.0
2016-May-24 15:31N 55°35' W 005°06'0 0.0
2016-May-24 14:31N 55°35' W 005°06'  
2016-May-22 08:31N 55°35' W 005°06'0 0.0
2016-May-22 07:31N 55°35' W 005°06'0 0.0
2016-May-22 06:12N 55°35' W 005°06'0 0.0
2016-May-22 04:12N 55°35' W 005°06'0 0.0
2016-May-21 11:07N 55°35' W 005°06'1 0.0
2016-May-19 23:06N 55°35' W 005°03'3212.5
2016-May-19 20:33N 55°04' W 005°17'1211.6
2016-May-19 19:32N 54°52' W 005°18'1111.3
2016-May-19 18:33N 54°41' W 005°15'1211.8
2016-May-19 17:33N 54°29' W 005°12'1312.7
2016-May-19 16:34N 54°17' W 005°12'17011.3
2016-May-19 01:29N 51°27' W 004°53'1410.5
2016-May-19 00:10N 51°25' W 004°31'57 9.8
2016-May-18 18:19N 51°27' W 002°60'1012.6
2016-May-18 17:34N 51°30' W 002°45'2 1.7
2016-May-18 16:32N 51°30' W 002°42'0 0.0
2016-May-18 15:32N 51°30' W 002°42'0 0.0
2016-May-18 14:32N 51°30' W 002°42'0 0.0
2016-May-18 13:31N 51°30' W 002°42'0 0.0
2016-May-18 12:31N 51°30' W 002°42'0 0.0
2016-May-18 11:33N 51°30' W 002°42'0 0.0
2016-May-18 10:33N 51°30' W 002°42'0 0.0
2016-May-18 09:32N 51°30' W 002°42'0 0.0
2016-May-18 08:32N 51°30' W 002°42'0 0.0
2016-May-18 07:31N 51°30' W 002°42'0 0.0
2016-May-18 06:31N 51°30' W 002°42'0 0.0
2016-May-18 05:31N 51°30' W 002°42'0 0.0
2016-May-18 04:33N 51°30' W 002°42'0 0.0
2016-May-18 03:33N 51°30' W 002°42'0 0.0
2016-May-18 02:32N 51°30' W 002°42'0 0.0
2016-May-18 01:32N 51°30' W 002°42'0 0.0
2016-May-18 00:31N 51°30' W 002°42'0 0.0
2016-May-17 23:31N 51°30' W 002°42'0 0.0
2016-May-17 22:31N 51°30' W 002°42'0 0.0
2016-May-17 21:33N 51°30' W 002°42'0 0.0
2016-May-17 20:33N 51°30' W 002°42'0 0.0
2016-May-17 19:32N 51°30' W 002°42'0 0.0
2016-May-17 18:32N 51°30' W 002°42'0 0.0
2016-May-17 17:31N 51°30' W 002°42'0 0.0
2016-May-17 16:31N 51°30' W 002°42'0 0.0
2016-May-17 15:31N 51°30' W 002°42'0 0.0
2016-May-17 14:33N 51°30' W 002°42'0 0.0
2016-May-17 13:33N 51°30' W 002°42'0 0.0
2016-May-17 12:32N 51°30' W 002°42'0 0.0
2016-May-17 11:32N 51°30' W 002°42'0 0.0
2016-May-17 10:31N 51°30' W 002°42'0 0.0
2016-May-17 09:31N 51°30' W 002°42'0 0.0
2016-May-17 08:31N 51°30' W 002°42'0 0.0
2016-May-17 07:33N 51°30' W 002°42'0 0.0
2016-May-17 06:33N 51°30' W 002°42'0 0.0
2016-May-17 05:29N 51°30' W 002°42'0 0.0
2016-May-17 04:32N 51°30' W 002°42'  
Track history (hours):
 
Tides and Currents Weather Stations Pressure Air Temp Water Temp Dewpoint Dewpoint Depression Visibility Wind Speed Wind Dir Waves Ship Positions

BBC Orinoco

Last reported at 2016-May-27 04:22 UTC. Time now 2016-May-27 20:06 UTC.
Position N 54°09' W 005°16'.

Length 143 m; draft 6.7 m.

Type: Ship. MMSI: 305255000.

Date/timePositionNaut miles runAvg speedWind from/ knotsBaromVisibWave heightAir tempDewpointWater temp
2016-May-27 04:22N 54°09' W 005°16'1012.3
2016-May-27 03:33N 54°19' W 005°16'1212.0
2016-May-27 02:34N 54°31' W 005°17'1313.0
2016-May-27 01:34N 54°44' W 005°18'1413.5
2016-May-27 00:34N 54°57' W 005°19'5412.3
2016-May-26 20:11N 55°50' W 004°57'812.6
2016-May-26 19:33N 55°57' W 004°53'1110.7
2016-May-26 18:33N 55°56' W 004°34'8 8.0
2016-May-26 17:33N 55°52' W 004°21'0 0.1
2016-May-26 16:32N 55°52' W 004°21'0 0.0
2016-May-26 15:31N 55°52' W 004°21'0 0.0
2016-May-26 14:31N 55°52' W 004°21'0 0.0
2016-May-26 13:33N 55°52' W 004°21'0 0.0
2016-May-26 12:33N 55°52' W 004°21'0 0.0
2016-May-26 11:24N 55°52' W 004°21'0 0.0
2016-May-26 10:32N 55°52' W 004°21'0 0.0
2016-May-26 09:32N 55°52' W 004°21'0 0.0
2016-May-26 08:31N 55°52' W 004°21'0 0.0
2016-May-26 07:28N 55°52' W 004°21'0 0.0
2016-May-26 06:34N 55°52' W 004°21'0 0.0
2016-May-26 05:33N 55°52' W 004°21'0 0.0
2016-May-26 04:33N 55°52' W 004°21'0 0.0
2016-May-26 03:32N 55°52' W 004°21'0 0.0
2016-May-26 02:32N 55°52' W 004°21'0 0.0
2016-May-26 01:31N 55°52' W 004°21'0 0.0
2016-May-26 00:31N 55°52' W 004°21'0 0.0
2016-May-25 23:33N 55°52' W 004°21'0 0.0
2016-May-25 22:32N 55°52' W 004°21'0 0.0
2016-May-25 21:33N 55°52' W 004°21'0 0.0
2016-May-25 20:32N 55°52' W 004°21'0 0.0
2016-May-25 19:29N 55°52' W 004°21'0 0.0
2016-May-25 18:31N 55°52' W 004°21'0 0.0
2016-May-25 17:25N 55°52' W 004°21'0 0.0
2016-May-25 16:33N 55°52' W 004°21'0 0.0
2016-May-25 15:30N 55°52' W 004°21'0 0.0
2016-May-25 12:33N 55°52' W 004°21'0 0.0
2016-May-25 11:31N 55°52' W 004°21'0 0.0
2016-May-25 10:16N 55°52' W 004°21'0 0.0
2016-May-25 09:34N 55°52' W 004°21'0 0.0
2016-May-25 08:33N 55°52' W 004°21'0 0.0
2016-May-25 07:33N 55°52' W 004°21'0 0.0
2016-May-25 06:32N 55°52' W 004°21'0 0.0
2016-May-25 05:32N 55°52' W 004°21'0 0.0
2016-May-25 04:31N 55°52' W 004°21'0 0.0
2016-May-25 03:31N 55°52' W 004°21'0 0.0
2016-May-25 02:33N 55°52' W 004°21'6 6.0
2016-May-25 01:33N 55°56' W 004°30'9 8.7
2016-May-25 00:33N 55°57' W 004°45'9 9.0
2016-May-24 23:33N 55°51' W 004°57'1711.3
2016-May-24 22:06N 55°35' W 005°06'0 0.0
2016-May-24 19:30N 55°35' W 005°06'0 0.0
2016-May-24 15:31N 55°35' W 005°06'0 0.0
2016-May-24 14:31N 55°35' W 005°06'  
2016-May-22 08:31N 55°35' W 005°06'0 0.0
2016-May-22 07:31N 55°35' W 005°06'0 0.0
2016-May-22 06:12N 55°35' W 005°06'0 0.0
2016-May-22 04:12N 55°35' W 005°06'0 0.0
2016-May-21 11:07N 55°35' W 005°06'1 0.0
2016-May-19 23:06N 55°35' W 005°03'3212.5
2016-May-19 20:33N 55°04' W 005°17'1211.6
2016-May-19 19:32N 54°52' W 005°18'1111.3
2016-May-19 18:33N 54°41' W 005°15'1211.8
2016-May-19 17:33N 54°29' W 005°12'1312.7
2016-May-19 16:34N 54°17' W 005°12'17011.3
2016-May-19 01:29N 51°27' W 004°53'1410.5
2016-May-19 00:10N 51°25' W 004°31'57 9.8
2016-May-18 18:19N 51°27' W 002°60'1012.6
2016-May-18 17:34N 51°30' W 002°45'2 1.7
2016-May-18 16:32N 51°30' W 002°42'0 0.0
2016-May-18 15:32N 51°30' W 002°42'0 0.0
2016-May-18 14:32N 51°30' W 002°42'0 0.0
2016-May-18 13:31N 51°30' W 002°42'0 0.0
2016-May-18 12:31N 51°30' W 002°42'0 0.0
2016-May-18 11:33N 51°30' W 002°42'0 0.0
2016-May-18 10:33N 51°30' W 002°42'0 0.0
2016-May-18 09:32N 51°30' W 002°42'0 0.0
2016-May-18 08:32N 51°30' W 002°42'0 0.0
2016-May-18 07:31N 51°30' W 002°42'0 0.0
2016-May-18 06:31N 51°30' W 002°42'0 0.0
2016-May-18 05:31N 51°30' W 002°42'0 0.0
2016-May-18 04:33N 51°30' W 002°42'0 0.0
2016-May-18 03:33N 51°30' W 002°42'0 0.0
2016-May-18 02:32N 51°30' W 002°42'0 0.0
2016-May-18 01:32N 51°30' W 002°42'0 0.0
2016-May-18 00:31N 51°30' W 002°42'0 0.0
2016-May-17 23:31N 51°30' W 002°42'0 0.0
2016-May-17 22:31N 51°30' W 002°42'0 0.0
2016-May-17 21:33N 51°30' W 002°42'0 0.0
2016-May-17 20:33N 51°30' W 002°42'0 0.0
2016-May-17 19:32N 51°30' W 002°42'0 0.0
2016-May-17 18:32N 51°30' W 002°42'0 0.0
2016-May-17 17:31N 51°30' W 002°42'0 0.0
2016-May-17 16:31N 51°30' W 002°42'0 0.0
2016-May-17 15:31N 51°30' W 002°42'0 0.0
2016-May-17 14:33N 51°30' W 002°42'0 0.0
2016-May-17 13:33N 51°30' W 002°42'0 0.0
2016-May-17 12:32N 51°30' W 002°42'0 0.0
2016-May-17 11:32N 51°30' W 002°42'0 0.0
2016-May-17 10:31N 51°30' W 002°42'0 0.0
2016-May-17 09:31N 51°30' W 002°42'0 0.0
2016-May-17 08:31N 51°30' W 002°42'0 0.0
2016-May-17 07:33N 51°30' W 002°42'0 0.0
2016-May-17 06:33N 51°30' W 002°42'0 0.0
2016-May-17 05:29N 51°30' W 002°42'0 0.0
2016-May-17 04:32N 51°30' W 002°42'  

Dump ship's entire track history